Time;durP1;ratioP1;P1;durP2;ratioP2;P2;SDS_P1;SDS_P2;PMS_P1;PMS_P2;Temp;Humidity;BMP_temperature;BMP_pressure;BME280_temperature;BME280_humidity;BME280_pressure;Samples;Min_cycle;Max_cycle;Signal;HPM_P1;HPM_P2
2023/08/09 00:01:01;;;;;;;6.07;3.10;;;16.30;99.90;;;;;;5085130;28;20258;-78
2023/08/09 00:03:31;;;;;;;4.32;3.22;;;16.20;99.90;;;;;;5085120;28;20225;-79
2023/08/09 00:06:00;;;;;;;8.25;3.10;;;16.30;99.90;;;;;;5085336;28;20292;-79
2023/08/09 00:08:28;;;;;;;7.32;3.45;;;16.30;99.90;;;;;;5085304;28;20206;-79
2023/08/09 00:10:56;;;;;;;7.63;3.35;;;16.20;99.90;;;;;;5085619;28;20235;-78
2023/08/09 00:13:24;;;;;;;3.25;2.97;;;16.20;99.90;;;;;;5092415;28;20592;-79
2023/08/09 00:15:52;;;;;;;6.38;3.33;;;16.30;99.90;;;;;;5105400;28;20243;-78
2023/08/09 00:18:20;;;;;;;3.75;2.83;;;16.30;99.90;;;;;;5104643;28;20221;-78
2023/08/09 00:20:48;;;;;;;6.03;3.63;;;16.20;99.90;;;;;;5100090;28;20265;-77
2023/08/09 00:23:21;;;;;;;5.20;3.60;;;16.20;99.90;;;;;;5097615;28;20310;-78
2023/08/09 00:25:49;;;;;;;6.85;3.63;;;16.10;99.90;;;;;;5098347;28;20216;-78
2023/08/09 00:28:16;;;;;;;6.57;3.70;;;16.10;99.90;;;;;;5098438;28;20204;-78
2023/08/09 00:30:44;;;;;;;5.22;3.22;;;16.10;99.90;;;;;;5097600;28;20272;-77
2023/08/09 00:33:12;;;;;;;6.55;3.95;;;16.10;99.90;;;;;;5097668;28;20719;-77
2023/08/09 00:35:40;;;;;;;6.75;3.60;;;16.10;99.90;;;;;;5097766;28;20204;-77
2023/08/09 00:38:08;;;;;;;4.65;4.00;;;16.00;99.90;;;;;;5098504;28;20231;-77
2023/08/09 00:40:38;;;;;;;5.00;3.58;;;16.00;99.90;;;;;;5098212;28;20201;-77
2023/08/09 00:43:06;;;;;;;7.70;4.00;;;16.00;99.90;;;;;;5097960;28;20255;-78
2023/08/09 00:45:34;;;;;;;5.28;3.67;;;16.00;99.90;;;;;;5098120;28;20201;-78
2023/08/09 00:48:03;;;;;;;6.70;4.18;;;16.00;99.90;;;;;;5098393;28;20197;-78
2023/08/09 00:50:30;;;;;;;7.47;4.43;;;16.00;99.90;;;;;;5098262;28;20200;-77
2023/08/09 00:52:59;;;;;;;4.20;3.80;;;16.00;99.90;;;;;;5098901;28;20290;-79
2023/08/09 00:55:26;;;;;;;4.53;3.92;;;16.00;99.90;;;;;;5101401;28;20209;-79
2023/08/09 00:57:55;;;;;;;8.77;3.70;;;16.00;99.90;;;;;;5101409;28;20264;-79
2023/08/09 01:00:23;;;;;;;6.20;3.78;;;16.00;99.90;;;;;;5102008;28;20209;-80
2023/08/09 01:02:51;;;;;;;5.10;3.80;;;16.00;99.90;;;;;;5101158;28;20709;-79
2023/08/09 01:05:19;;;;;;;6.85;4.78;;;16.00;99.90;;;;;;5094778;28;20204;-79
2023/08/09 01:07:50;;;;;;;4.72;3.38;;;16.00;99.90;;;;;;5098199;28;20613;-79
2023/08/09 01:10:20;;;;;;;9.00;3.97;;;16.00;99.90;;;;;;5098330;28;20232;-78
2023/08/09 01:12:50;;;;;;;4.85;3.88;;;16.10;99.90;;;;;;5099997;28;20310;-78
2023/08/09 01:15:20;;;;;;;7.15;4.78;;;16.10;99.90;;;;;;5083855;28;20209;-78
2023/08/09 01:17:49;;;;;;;9.18;3.90;;;16.10;99.90;;;;;;5084681;28;20277;-79
2023/08/09 01:20:18;;;;;;;6.97;3.92;;;16.10;99.90;;;;;;5084410;28;20278;-78
2023/08/09 01:22:50;;;;;;;5.45;3.67;;;16.10;99.90;;;;;;5078090;28;20290;-78
2023/08/09 01:25:19;;;;;;;6.32;4.30;;;16.10;99.90;;;;;;5079198;28;20205;-78
2023/08/09 01:27:48;;;;;;;4.45;3.72;;;16.10;99.90;;;;;;5080024;28;20281;-78
2023/08/09 01:30:16;;;;;;;7.90;4.00;;;16.10;99.90;;;;;;5080191;28;20212;-80
2023/08/09 01:32:44;;;;;;;7.60;4.28;;;16.00;99.90;;;;;;5078414;28;20228;-80
2023/08/09 01:35:12;;;;;;;5.65;4.18;;;16.00;99.90;;;;;;5078226;28;20208;-80
2023/08/09 01:37:43;;;;;;;7.38;4.28;;;16.00;99.90;;;;;;5078157;28;20256;-80
2023/08/09 01:40:12;;;;;;;5.53;3.88;;;16.00;99.90;;;;;;5078047;28;20247;-80
2023/08/09 01:42:41;;;;;;;7.03;4.35;;;16.00;99.90;;;;;;5077428;28;20205;-80
2023/08/09 01:45:11;;;;;;;8.10;4.70;;;16.00;99.90;;;;;;5076068;28;20205;-78
2023/08/09 01:47:40;;;;;;;5.15;4.22;;;16.00;99.90;;;;;;5075901;28;20239;-78
2023/08/09 01:50:16;;;;;;;9.27;4.95;;;16.00;99.90;;;;;;5076512;28;20490;-79
2023/08/09 01:52:44;;;;;;;7.72;5.07;;;16.00;99.90;;;;;;5074626;28;20217;-78
2023/08/09 01:55:14;;;;;;;6.10;5.03;;;16.00;99.90;;;;;;5073884;28;20197;-79
2023/08/09 01:57:44;;;;;;;11.23;4.72;;;15.90;99.90;;;;;;5074073;28;20271;-79
2023/08/09 02:00:15;;;;;;;5.60;4.60;;;15.90;99.90;;;;;;5074134;28;20244;-79
2023/08/09 02:02:43;;;;;;;7.15;4.95;;;15.80;99.90;;;;;;5074790;28;20701;-77
2023/08/09 02:05:11;;;;;;;5.28;4.78;;;15.90;99.90;;;;;;5071434;28;20585;-77
2023/08/09 02:07:39;;;;;;;6.68;4.82;;;16.00;99.90;;;;;;5071022;28;20204;-75
2023/08/09 02:10:10;;;;;;;7.32;4.88;;;16.00;99.90;;;;;;5070412;28;20209;-75
2023/08/09 02:12:38;;;;;;;6.60;5.05;;;16.00;99.90;;;;;;5072470;28;20233;-75
2023/08/09 02:15:08;;;;;;;4.68;4.10;;;16.00;99.90;;;;;;5091561;28;20270;-75
2023/08/09 02:17:36;;;;;;;9.38;5.35;;;16.00;99.90;;;;;;5091488;28;20200;-75
2023/08/09 02:20:06;;;;;;;7.10;4.90;;;16.00;99.90;;;;;;5092001;28;20547;-76
2023/08/09 02:22:37;;;;;;;9.10;4.60;;;16.00;99.90;;;;;;5092028;28;20204;-76
2023/08/09 02:25:06;;;;;;;7.78;4.60;;;16.10;99.90;;;;;;5091093;28;20250;-76
2023/08/09 02:27:34;;;;;;;9.82;5.68;;;16.00;99.90;;;;;;5091846;28;20212;-76
2023/08/09 02:30:03;;;;;;;7.72;4.80;;;16.10;99.90;;;;;;5091558;28;20255;-76
2023/08/09 02:32:34;;;;;;;7.15;5.10;;;16.10;99.90;;;;;;5091084;28;20211;-76
2023/08/09 02:35:02;;;;;;;9.80;4.70;;;16.10;99.90;;;;;;5089858;28;20297;-76
2023/08/09 02:37:30;;;;;;;13.65;5.78;;;16.10;99.90;;;;;;5089574;28;20204;-76
2023/08/09 02:39:58;;;;;;;7.10;5.45;;;16.10;99.90;;;;;;5089184;28;20301;-76
2023/08/09 02:42:26;;;;;;;12.68;5.38;;;16.00;99.90;;;;;;5089508;28;20204;-76
2023/08/09 02:44:54;;;;;;;10.18;5.35;;;16.10;99.90;;;;;;5089731;28;20208;-76
2023/08/09 02:47:22;;;;;;;6.57;5.40;;;16.00;99.90;;;;;;5089665;28;20503;-77
2023/08/09 02:49:51;;;;;;;8.85;5.68;;;16.00;99.90;;;;;;5069193;28;20251;-79
2023/08/09 02:52:20;;;;;;;7.00;5.15;;;16.00;99.90;;;;;;5051554;28;20202;-79
2023/08/09 02:54:48;;;;;;;6.85;5.57;;;15.90;99.90;;;;;;5051646;28;20217;-79
2023/08/09 02:57:16;;;;;;;13.88;5.90;;;15.90;99.90;;;;;;5051518;28;20209;-79
2023/08/09 02:59:44;;;;;;;11.10;5.85;;;15.90;99.90;;;;;;5051464;28;20310;-79
2023/08/09 03:02:13;;;;;;;10.25;5.60;;;15.90;99.90;;;;;;5051666;28;20363;-78
2023/08/09 03:04:42;;;;;;;9.45;5.63;;;15.90;99.90;;;;;;5050332;28;20261;-79
2023/08/09 03:07:11;;;;;;;9.43;6.18;;;15.90;99.90;;;;;;5051331;28;20205;-79
2023/08/09 03:09:40;;;;;;;6.50;5.32;;;15.90;99.90;;;;;;5050996;28;20202;-79
2023/08/09 03:12:08;;;;;;;7.57;5.50;;;15.90;99.90;;;;;;5051613;28;20212;-79
2023/08/09 03:14:36;;;;;;;6.72;6.07;;;15.90;99.90;;;;;;5086339;28;20227;-80
2023/08/09 03:17:04;;;;;;;7.50;5.78;;;15.90;99.90;;;;;;5091322;28;20265;-80
2023/08/09 03:19:32;;;;;;;8.32;5.10;;;15.90;99.90;;;;;;5093984;28;20770;-80
2023/08/09 03:22:00;;;;;;;6.40;4.78;;;15.90;99.90;;;;;;5095447;28;20223;-79
2023/08/09 03:24:29;;;;;;;12.88;6.35;;;15.90;99.90;;;;;;5098031;28;20258;-79
2023/08/09 03:26:58;;;;;;;6.22;5.50;;;15.90;99.90;;;;;;5097739;28;20626;-79
2023/08/09 03:29:27;;;;;;;8.95;5.57;;;15.90;99.90;;;;;;5097122;28;20197;-79
2023/08/09 03:31:56;;;;;;;9.18;6.35;;;15.90;99.90;;;;;;5096243;28;20810;-78
2023/08/09 03:34:24;;;;;;;9.43;6.05;;;15.90;99.90;;;;;;5094698;28;20243;-78
2023/08/09 03:36:52;;;;;;;8.70;6.30;;;15.90;99.90;;;;;;5094106;28;20346;-78
2023/08/09 03:39:21;;;;;;;11.65;6.20;;;15.90;99.90;;;;;;5094462;28;20334;-78
2023/08/09 03:41:50;;;;;;;11.73;6.20;;;15.90;99.90;;;;;;5094571;28;20639;-78
2023/08/09 03:44:18;;;;;;;9.90;6.05;;;15.90;99.90;;;;;;5094212;28;20287;-78
2023/08/09 03:46:46;;;;;;;6.72;6.00;;;16.00;99.90;;;;;;5094325;28;20212;-78
2023/08/09 03:49:14;;;;;;;7.03;5.88;;;15.90;99.90;;;;;;5094404;28;20200;-78
2023/08/09 03:51:43;;;;;;;6.65;5.78;;;15.90;99.90;;;;;;5094681;28;20306;-79
2023/08/09 03:54:11;;;;;;;9.68;5.72;;;15.90;99.90;;;;;;5094186;28;20709;-78
2023/08/09 03:56:40;;;;;;;8.98;6.03;;;15.90;99.90;;;;;;5094135;28;20254;-78
2023/08/09 03:59:09;;;;;;;7.68;6.30;;;15.90;99.90;;;;;;5093690;28;20347;-79
2023/08/09 04:01:37;;;;;;;10.25;6.03;;;15.90;99.90;;;;;;5074559;28;20277;-76
2023/08/09 04:04:07;;;;;;;6.82;6.13;;;15.90;99.90;;;;;;5078786;28;20239;-76
2023/08/09 04:06:36;;;;;;;11.38;5.85;;;15.90;99.90;;;;;;5079721;28;20237;-78
2023/08/09 04:09:03;;;;;;;8.13;5.70;;;15.90;99.90;;;;;;5086478;28;20630;-76
2023/08/09 04:11:31;;;;;;;5.70;5.15;;;15.90;99.90;;;;;;5086993;28;20228;-76
2023/08/09 04:14:02;;;;;;;10.45;5.18;;;15.90;99.90;;;;;;5093683;28;20220;-76
2023/08/09 04:16:31;;;;;;;7.72;5.28;;;15.90;99.90;;;;;;5072854;28;20647;-78
2023/08/09 04:19:00;;;;;;;13.75;5.40;;;15.90;99.90;;;;;;5073730;28;20228;-78
2023/08/09 04:21:28;;;;;;;11.20;5.75;;;15.90;99.90;;;;;;5070670;28;20271;-78
2023/08/09 04:23:56;;;;;;;9.68;5.88;;;15.90;99.90;;;;;;5069712;28;20224;-78
2023/08/09 04:26:23;;;;;;;8.10;6.20;;;15.80;99.90;;;;;;5073104;28;20197;-78
2023/08/09 04:28:51;;;;;;;14.15;5.03;;;15.80;99.90;;;;;;5072659;28;20229;-78
2023/08/09 04:31:19;;;;;;;6.90;5.45;;;15.80;99.90;;;;;;5073446;28;20286;-78
2023/08/09 04:33:51;;;;;;;5.82;5.32;;;15.80;99.90;;;;;;5073012;28;20312;-78
2023/08/09 04:36:19;;;;;;;7.47;5.28;;;15.80;99.90;;;;;;5073516;28;20251;-78
2023/08/09 04:38:47;;;;;;;6.63;5.35;;;15.80;99.90;;;;;;5072742;28;20243;-78
2023/08/09 04:41:15;;;;;;;5.55;4.75;;;15.80;99.90;;;;;;5073179;28;20205;-78
2023/08/09 04:43:44;;;;;;;6.00;4.38;;;15.90;99.90;;;;;;5072997;28;20599;-78
2023/08/09 04:46:12;;;;;;;6.45;4.60;;;15.90;99.90;;;;;;5072834;28;20213;-78
2023/08/09 04:48:40;;;;;;;6.88;5.22;;;15.90;99.90;;;;;;5073109;28;20209;-78
2023/08/09 04:51:09;;;;;;;4.43;3.85;;;15.90;99.90;;;;;;5072526;28;20659;-78
2023/08/09 04:53:37;;;;;;;7.63;4.07;;;15.90;99.90;;;;;;5072740;28;20497;-77
2023/08/09 04:56:05;;;;;;;8.00;4.60;;;16.00;99.90;;;;;;5071817;28;20296;-78
2023/08/09 04:58:33;;;;;;;9.38;4.55;;;16.00;99.90;;;;;;5069612;28;20244;-78
2023/08/09 05:01:01;;;;;;;7.65;4.30;;;16.00;99.90;;;;;;5070001;28;20311;-78
2023/08/09 05:03:29;;;;;;;13.57;4.63;;;16.00;99.90;;;;;;5092933;28;20259;-78
2023/08/09 05:05:57;;;;;;;6.18;5.55;;;16.00;99.90;;;;;;5092507;28;20204;-78
2023/08/09 05:08:26;;;;;;;7.15;4.10;;;16.10;99.90;;;;;;5093200;28;20748;-78
2023/08/09 05:10:54;;;;;;;5.78;3.45;;;16.10;99.90;;;;;;5092866;28;20200;-79
2023/08/09 05:13:22;;;;;;;6.03;2.80;;;16.10;99.90;;;;;;5085147;28;20734;-79
2023/08/09 05:15:50;;;;;;;6.07;3.22;;;16.10;99.90;;;;;;5072051;28;20213;-79
2023/08/09 05:18:18;;;;;;;3.33;3.03;;;16.10;99.90;;;;;;5072674;28;20217;-78
2023/08/09 05:20:46;;;;;;;3.72;2.53;;;16.10;99.90;;;;;;5072376;28;20311;-78
2023/08/09 05:23:14;;;;;;;5.78;2.65;;;16.10;99.90;;;;;;5072635;28;20306;-78
2023/08/09 05:25:43;;;;;;;2.97;2.55;;;16.10;99.90;;;;;;5072186;28;20233;-78
2023/08/09 05:28:11;;;;;;;7.13;2.38;;;16.10;99.90;;;;;;5072341;28;20213;-79
2023/08/09 05:30:39;;;;;;;4.57;2.58;;;16.10;99.90;;;;;;5072122;28;20213;-75
2023/08/09 05:33:08;;;;;;;9.80;2.83;;;16.10;99.90;;;;;;5072250;28;20226;-74
2023/08/09 05:35:36;;;;;;;9.30;2.67;;;16.10;99.90;;;;;;5071645;28;20674;-74
2023/08/09 05:38:04;;;;;;;4.35;2.47;;;16.10;99.90;;;;;;5071999;28;20205;-74
2023/08/09 05:40:32;;;;;;;10.07;2.55;;;16.20;99.90;;;;;;5071033;28;20217;-74
2023/08/09 05:43:02;;;;;;;5.07;2.40;;;16.20;99.90;;;;;;5071721;28;20229;-74
2023/08/09 05:45:30;;;;;;;8.60;2.70;;;16.20;99.90;;;;;;5071859;28;20209;-74
2023/08/09 05:47:58;;;;;;;4.75;2.90;;;16.20;99.90;;;;;;5072167;28;20262;-74
2023/08/09 05:50:26;;;;;;;2.75;2.55;;;16.20;99.90;;;;;;5071888;28;20258;-74
2023/08/09 05:52:55;;;;;;;5.53;3.00;;;16.20;99.90;;;;;;5072069;28;20229;-74
2023/08/09 05:55:23;;;;;;;5.75;2.72;;;16.20;99.90;;;;;;5071546;28;20260;-74
2023/08/09 05:57:51;;;;;;;4.95;2.65;;;16.30;99.90;;;;;;5071618;28;20647;-74
2023/08/09 06:00:21;;;;;;;10.32;3.03;;;16.30;99.90;;;;;;5071597;28;20694;-75
2023/08/09 06:02:52;;;;;;;12.52;3.58;;;16.30;99.90;;;;;;5071676;28;20324;-74
2023/08/09 06:05:25;;;;;;;3.67;2.80;;;16.30;99.90;;;;;;5077333;28;20666;-75
2023/08/09 06:07:54;;;;;;;8.00;2.60;;;16.40;99.90;;;;;;5091768;28;20686;-74
2023/08/09 06:10:22;;;;;;;7.97;2.80;;;16.40;99.90;;;;;;5091455;28;20586;-74
2023/08/09 06:12:50;;;;;;;7.18;2.70;;;16.40;99.90;;;;;;5088398;28;20241;-74
2023/08/09 06:15:20;;;;;;;6.03;2.83;;;16.40;99.90;;;;;;5071238;28;20236;-74
2023/08/09 06:17:47;;;;;;;8.32;2.63;;;16.50;99.90;;;;;;5071618;28;20205;-74
2023/08/09 06:20:17;;;;;;;5.88;2.50;;;16.50;99.90;;;;;;5071070;28;20797;-74
2023/08/09 06:22:44;;;;;;;3.85;2.42;;;16.50;99.90;;;;;;5071131;28;20229;-74
2023/08/09 06:25:12;;;;;;;4.07;2.63;;;16.60;99.90;;;;;;5071151;28;20213;-75
2023/08/09 06:27:40;;;;;;;4.25;2.35;;;16.60;99.90;;;;;;5071497;28;20306;-74
2023/08/09 06:30:08;;;;;;;8.18;3.00;;;16.60;99.90;;;;;;5071369;28;20237;-74
2023/08/09 06:32:37;;;;;;;3.53;2.55;;;16.60;99.90;;;;;;5071314;28;20209;-74
2023/08/09 06:35:09;;;;;;;6.68;2.92;;;16.60;99.90;;;;;;5070622;28;20205;-74
2023/08/09 06:37:38;;;;;;;6.45;2.60;;;16.60;99.90;;;;;;5071552;28;20239;-74
2023/08/09 06:40:07;;;;;;;4.47;2.47;;;16.70;99.90;;;;;;5070850;28;20248;-74
2023/08/09 06:42:35;;;;;;;5.03;2.40;;;16.70;99.90;;;;;;5071326;28;20560;-74
2023/08/09 06:45:04;;;;;;;4.88;2.72;;;16.70;99.90;;;;;;5070782;28;20205;-74
2023/08/09 06:47:32;;;;;;;2.42;2.22;;;16.70;99.90;;;;;;5071105;28;20208;-74
2023/08/09 06:50:03;;;;;;;5.13;2.50;;;16.70;99.90;;;;;;5071085;28;20323;-74
2023/08/09 06:52:31;;;;;;;6.43;2.60;;;16.70;99.90;;;;;;5072965;28;20223;-74
2023/08/09 06:54:59;;;;;;;4.55;2.50;;;16.70;99.90;;;;;;5074846;28;20556;-73
2023/08/09 06:57:27;;;;;;;9.18;2.38;;;16.70;99.90;;;;;;5075358;28;20579;-74
2023/08/09 06:59:55;;;;;;;3.78;2.03;;;16.80;99.90;;;;;;5074826;28;20670;-74
2023/08/09 07:02:22;;;;;;;4.78;2.47;;;16.80;99.90;;;;;;5074785;28;20278;-74
2023/08/09 07:04:54;;;;;;;6.75;2.25;;;16.90;99.90;;;;;;5074581;28;20693;-74
2023/08/09 07:07:23;;;;;;;2.60;2.40;;;16.80;99.90;;;;;;5075205;28;20216;-74
2023/08/09 07:09:52;;;;;;;7.85;2.53;;;16.90;99.90;;;;;;5074699;28;20217;-74
2023/08/09 07:12:20;;;;;;;6.90;2.60;;;16.90;99.90;;;;;;5075047;28;20241;-74
2023/08/09 07:14:48;;;;;;;5.35;2.35;;;16.90;99.90;;;;;;5093836;28;20544;-74
2023/08/09 07:17:16;;;;;;;4.25;2.50;;;16.90;99.90;;;;;;5095454;28;20208;-74
2023/08/09 07:19:44;;;;;;;8.48;2.47;;;17.00;99.90;;;;;;5095036;28;20274;-74
2023/08/09 07:22:12;;;;;;;12.98;2.75;;;17.00;99.90;;;;;;5095400;28;20319;-74
2023/08/09 07:24:41;;;;;;;2.70;2.20;;;17.00;99.90;;;;;;5095365;28;20327;-74
2023/08/09 07:27:09;;;;;;;5.13;2.60;;;17.00;99.90;;;;;;5095593;28;20255;-74
2023/08/09 07:29:37;;;;;;;3.03;2.50;;;17.00;99.90;;;;;;5095526;28;20266;-74
2023/08/09 07:32:06;;;;;;;2.40;2.20;;;17.10;99.90;;;;;;5095502;28;20289;-74
2023/08/09 07:34:34;;;;;;;4.07;2.45;;;17.10;99.90;;;;;;5095687;28;20216;-74
2023/08/09 07:37:02;;;;;;;2.13;1.92;;;17.20;99.90;;;;;;5095201;28;20294;-75
2023/08/09 07:39:30;;;;;;;5.60;2.15;;;17.20;99.90;;;;;;5095263;28;20228;-75
2023/08/09 07:41:59;;;;;;;4.38;2.58;;;17.20;99.90;;;;;;5094969;28;20228;-75
2023/08/09 07:44:27;;;;;;;4.18;2.85;;;17.20;99.90;;;;;;5095412;28;20232;-74
2023/08/09 07:46:55;;;;;;;2.42;2.28;;;17.30;99.90;;;;;;5094647;28;20661;-75
2023/08/09 07:49:23;;;;;;;2.40;1.95;;;17.40;99.90;;;;;;5095380;28;20208;-74
2023/08/09 07:51:51;;;;;;;4.10;2.28;;;17.40;99.90;;;;;;5095055;28;20201;-74
2023/08/09 07:54:19;;;;;;;4.88;2.80;;;17.50;99.90;;;;;;5106805;28;20273;-75
2023/08/09 07:56:47;;;;;;;6.53;2.75;;;17.50;99.90;;;;;;5093930;28;20643;-74
2023/08/09 07:59:16;;;;;;;6.53;2.47;;;17.60;99.90;;;;;;5095204;28;20204;-75
2023/08/09 08:01:44;;;;;;;4.40;2.47;;;17.60;99.90;;;;;;5095013;28;20315;-74
2023/08/09 08:04:13;;;;;;;7.65;3.00;;;17.60;99.90;;;;;;5094057;28;20232;-72
2023/08/09 08:06:42;;;;;;;7.07;2.80;;;17.60;99.90;;;;;;5093691;28;20291;-73
2023/08/09 08:09:12;;;;;;;2.53;2.42;;;17.60;99.90;;;;;;5093659;28;20209;-73
2023/08/09 08:11:40;;;;;;;6.32;2.28;;;17.60;99.90;;;;;;5093652;28;20200;-72
2023/08/09 08:14:09;;;;;;;3.58;2.00;;;17.60;99.90;;;;;;5079814;28;20286;-72
2023/08/09 08:16:39;;;;;;;4.45;2.40;;;17.60;99.90;;;;;;5073281;28;20233;-75
2023/08/09 08:19:07;;;;;;;6.15;2.60;;;17.50;99.90;;;;;;5073874;28;20209;-72
2023/08/09 08:21:35;;;;;;;10.52;2.50;;;17.50;99.90;;;;;;5073113;28;20262;-72
2023/08/09 08:24:04;;;;;;;2.50;2.13;;;17.50;99.90;;;;;;5073457;28;20229;-72
2023/08/09 08:26:33;;;;;;;4.95;2.05;;;17.60;99.90;;;;;;5073342;28;20700;-73
2023/08/09 08:29:02;;;;;;;5.40;2.78;;;17.70;99.90;;;;;;5073365;28;20262;-73
2023/08/09 08:31:30;;;;;;;2.60;2.50;;;17.80;99.90;;;;;;5073267;28;20254;-72
2023/08/09 08:33:59;;;;;;;5.00;2.40;;;17.80;99.90;;;;;;5072995;28;20236;-72
2023/08/09 08:36:27;;;;;;;2.55;2.35;;;17.80;99.90;;;;;;5072869;28;20320;-73
2023/08/09 08:38:58;;;;;;;3.97;2.78;;;17.80;99.90;;;;;;5073255;28;20208;-72
2023/08/09 08:41:26;;;;;;;3.33;1.20;;;17.70;99.90;;;;;;5073085;28;20257;-72
2023/08/09 08:43:55;;;;;;;2.28;0.80;;;17.60;99.90;;;;;;5073040;28;20221;-73
2023/08/09 08:46:22;;;;;;;1.70;0.55;;;17.40;99.90;;;;;;5072358;28;20236;-73
2023/08/09 08:48:51;;;;;;;2.50;0.75;;;17.20;99.90;;;;;;5073027;28;20543;-72
2023/08/09 08:51:22;;;;;;;3.03;0.90;;;17.00;99.90;;;;;;5073143;28;20279;-72
2023/08/09 08:53:50;;;;;;;4.78;0.70;;;17.00;99.90;;;;;;5072981;28;20257;-72
2023/08/09 08:56:18;;;;;;;3.13;0.60;;;16.90;99.90;;;;;;5072636;28;20189;-73
2023/08/09 08:58:46;;;;;;;1.40;0.70;;;16.90;99.90;;;;;;5072606;28;20204;-72
2023/08/09 09:01:15;;;;;;;0.77;0.60;;;17.00;99.90;;;;;;5072036;28;20216;-72
2023/08/09 09:03:42;;;;;;;1.55;0.70;;;17.10;99.90;;;;;;5072763;28;20319;-72
2023/08/09 09:06:11;;;;;;;1.95;0.60;;;17.20;99.90;;;;;;5072256;28;20246;-72
2023/08/09 09:08:44;;;;;;;0.98;0.80;;;17.20;99.90;;;;;;5072617;28;20291;-73
2023/08/09 09:11:15;;;;;;;0.70;0.70;;;17.20;99.90;;;;;;5072295;28;20197;-73
2023/08/09 09:13:43;;;;;;;1.38;0.70;;;17.20;99.90;;;;;;5082788;28;20285;-74
2023/08/09 09:16:11;;;;;;;3.13;0.80;;;17.10;99.90;;;;;;5092252;28;20758;-72
2023/08/09 09:18:41;;;;;;;2.28;0.68;;;17.10;99.90;;;;;;5092841;28;20211;-72
2023/08/09 09:21:09;;;;;;;4.03;0.70;;;17.00;99.90;;;;;;5092408;28;20673;-72
2023/08/09 09:23:38;;;;;;;0.60;0.60;;;17.00;99.90;;;;;;5092330;28;20331;-74
2023/08/09 09:26:08;;;;;;;0.90;0.50;;;17.00;99.90;;;;;;5092051;28;20211;-73
2023/08/09 09:28:39;;;;;;;1.92;0.40;;;17.00;99.90;;;;;;5092641;28;20204;-72
2023/08/09 09:31:07;;;;;;;1.02;0.60;;;17.00;99.90;;;;;;5092460;28;20208;-73
2023/08/09 09:33:35;;;;;;;1.08;0.60;;;16.90;99.90;;;;;;5092234;28;20764;-73
2023/08/09 09:36:03;;;;;;;0.50;0.50;;;16.90;99.90;;;;;;5091875;28;20307;-74
2023/08/09 09:38:32;;;;;;;1.52;0.43;;;16.90;99.90;;;;;;5091987;28;20666;-72
2023/08/09 09:41:01;;;;;;;0.47;0.47;;;16.90;99.90;;;;;;5092368;28;20303;-74
2023/08/09 09:43:33;;;;;;;0.57;0.50;;;16.90;99.90;;;;;;5092065;28;20232;-72
2023/08/09 09:46:01;;;;;;;0.93;0.50;;;17.00;99.90;;;;;;5092062;28;20276;-72
2023/08/09 09:48:29;;;;;;;1.13;0.50;;;17.00;99.90;;;;;;5092291;28;20212;-73
2023/08/09 09:51:02;;;;;;;3.28;0.82;;;17.10;99.90;;;;;;5091971;28;20209;-72
2023/08/09 09:53:30;;;;;;;2.85;0.50;;;17.20;99.90;;;;;;5092282;28;20252;-73
2023/08/09 09:55:58;;;;;;;3.50;0.77;;;17.30;99.90;;;;;;5091920;28;20320;-73
2023/08/09 09:58:26;;;;;;;2.30;0.80;;;17.40;99.90;;;;;;5092100;28;20273;-72
2023/08/09 10:00:56;;;;;;;1.05;0.70;;;17.50;99.90;;;;;;5091834;28;20212;-73
2023/08/09 10:03:24;;;;;;;1.48;0.40;;;17.60;99.90;;;;;;5091905;28;20259;-72
2023/08/09 10:05:56;;;;;;;2.05;0.63;;;17.70;99.90;;;;;;5091922;28;20212;-72
2023/08/09 10:08:24;;;;;;;0.77;0.60;;;17.80;99.90;;;;;;5092139;28;20612;-72
2023/08/09 10:10:53;;;;;;;0.60;0.60;;;17.90;99.90;;;;;;5091737;28;20586;-72
2023/08/09 10:13:22;;;;;;;1.05;0.60;;;18.10;99.90;;;;;;5084318;28;20300;-73
2023/08/09 10:15:53;;;;;;;1.50;0.60;;;18.20;99.90;;;;;;5071233;28;20254;-73
2023/08/09 10:18:25;;;;;;;3.17;0.80;;;18.30;99.90;;;;;;5071665;28;20205;-74
2023/08/09 10:20:55;;;;;;;2.30;0.65;;;18.40;99.90;;;;;;5071523;28;20228;-76
2023/08/09 10:23:24;;;;;;;1.00;0.73;;;18.60;99.90;;;;;;5071430;28;20228;-72
2023/08/09 10:25:53;;;;;;;2.05;0.63;;;18.80;99.90;;;;;;5071356;28;20200;-72
2023/08/09 10:28:45;;;;;;;0.70;0.70;;;18.90;99.90;;;;;;5071254;28;20193;-74
2023/08/09 10:31:14;;;;;;;0.75;0.70;;;19.00;99.90;;;;;;5071566;28;20236;-72
2023/08/09 10:34:07;;;;;;;1.27;0.90;;;19.00;99.90;;;;;;5071437;28;20246;-73
2023/08/09 10:36:35;;;;;;;5.05;0.93;;;19.00;99.90;;;;;;5070614;28;20217;-72
2023/08/09 10:39:09;;;;;;;1.15;0.70;;;19.10;99.90;;;;;;5071637;28;20612;-72
2023/08/09 10:41:36;;;;;;;0.95;0.80;;;19.00;99.90;;;;;;5071452;28;20590;-73
2023/08/09 10:44:05;;;;;;;0.73;0.63;;;19.00;99.90;;;;;;5071210;28;20229;-73
2023/08/09 10:46:33;;;;;;;2.28;0.60;;;18.90;99.90;;;;;;5071034;28;20295;-72
2023/08/09 10:49:03;;;;;;;0.88;0.70;;;19.00;99.90;;;;;;5071727;28;20228;-73
2023/08/09 10:51:31;;;;;;;2.50;0.80;;;19.10;99.90;;;;;;5071302;28;20684;-72
2023/08/09 10:53:59;;;;;;;0.80;0.80;;;19.20;99.90;;;;;;5071282;28;20311;-73
2023/08/09 10:56:34;;;;;;;0.88;0.60;;;19.20;99.90;;;;;;5070956;28;20303;-73
2023/08/09 10:59:06;;;;;;;3.03;0.88;;;19.10;99.90;;;;;;5071088;28;20715;-72
2023/08/09 11:01:34;;;;;;;0.98;0.70;;;19.20;99.90;;;;;;5071105;28;20244;-73
2023/08/09 11:04:06;;;;;;;0.82;0.60;;;19.20;99.90;;;;;;5070753;28;20559;-72
2023/08/09 11:06:38;;;;;;;1.75;0.90;;;19.20;99.90;;;;;;5070845;28;20204;-73
2023/08/09 11:09:08;;;;;;;1.55;0.90;;;19.30;99.90;;;;;;5071381;28;20205;-73
2023/08/09 11:11:36;;;;;;;0.98;0.80;;;19.50;99.90;;;;;;5070892;28;20266;-72
2023/08/09 11:14:04;;;;;;;1.95;0.70;;;19.60;99.90;;;;;;5084177;28;20293;-73
2023/08/09 11:16:32;;;;;;;3.55;0.90;;;19.80;99.90;;;;;;5090649;28;20204;-73
2023/08/09 11:19:04;;;;;;;4.22;0.73;;;19.90;99.90;;;;;;5090891;28;20215;-73
2023/08/09 11:21:40;;;;;;;0.85;0.70;;;20.10;99.90;;;;;;5091059;28;20257;-72
2023/08/09 11:24:08;;;;;;;0.60;0.60;;;20.30;99.90;;;;;;5091234;28;20277;-72
2023/08/09 11:26:37;;;;;;;2.70;0.75;;;20.50;99.90;;;;;;5090750;28;20578;-73
2023/08/09 11:29:05;;;;;;;2.60;0.70;;;20.60;99.90;;;;;;5090559;28;20689;-73
2023/08/09 11:31:33;;;;;;;2.08;0.68;;;20.90;99.90;;;;;;5091037;28;20200;-72
2023/08/09 11:34:01;;;;;;;0.57;0.50;;;21.20;99.90;;;;;;5090991;28;20275;-73
2023/08/09 11:36:31;;;;;;;2.13;0.60;;;21.40;99.90;;;;;;5090578;28;20270;-73
2023/08/09 11:38:59;;;;;;;2.55;0.85;;;21.50;99.90;;;;;;5091651;28;20291;-73
2023/08/09 11:41:27;;;;;;;1.30;0.70;;;21.50;99.90;;;;;;5094134;28;20207;-73
2023/08/09 11:43:55;;;;;;;4.30;0.80;;;21.70;99.90;;;;;;5094438;28;20689;-73
2023/08/09 11:46:23;;;;;;;1.58;0.55;;;21.90;99.90;;;;;;5094261;28;20231;-73
2023/08/09 11:48:51;;;;;;;0.73;0.73;;;22.00;99.90;;;;;;5094595;28;20215;-73
2023/08/09 11:51:20;;;;;;;0.90;0.60;;;22.20;99.90;;;;;;5094277;28;20226;-73
2023/08/09 11:53:50;;;;;;;0.60;0.60;;;22.30;99.90;;;;;;5094188;28;20248;-72
2023/08/09 11:56:19;;;;;;;0.63;0.60;;;22.40;99.90;;;;;;5093889;28;20222;-73
2023/08/09 11:58:49;;;;;;;0.80;0.70;;;22.60;99.90;;;;;;5094462;28;20253;-73
2023/08/09 12:01:20;;;;;;;1.13;0.70;;;22.70;99.90;;;;;;5094263;28;20231;-73
2023/08/09 12:03:49;;;;;;;0.80;0.80;;;22.70;99.90;;;;;;5093869;28;20251;-76
2023/08/09 12:06:18;;;;;;;3.13;0.70;;;22.80;99.90;;;;;;5093743;28;20265;-73
2023/08/09 12:08:46;;;;;;;4.18;0.63;;;22.80;99.90;;;;;;5093842;28;20251;-73
2023/08/09 12:11:18;;;;;;;0.60;0.60;;;22.90;99.90;;;;;;5094031;28;20204;-73
2023/08/09 12:13:46;;;;;;;1.23;0.77;;;23.00;99.90;;;;;;5083049;28;20278;-73
2023/08/09 12:16:14;;;;;;;0.60;0.60;;;23.10;99.90;;;;;;5073431;28;20252;-73
2023/08/09 12:18:42;;;;;;;0.75;0.75;;;23.10;99.90;;;;;;5073486;28;20721;-73
2023/08/09 12:21:10;;;;;;;0.98;0.80;;;23.20;99.90;;;;;;5073211;28;20243;-73
2023/08/09 12:23:38;;;;;;;2.13;0.90;;;23.00;99.90;;;;;;5073828;28;20286;-73
2023/08/09 12:26:07;;;;;;;0.90;0.55;;;22.60;99.90;;;;;;5073502;28;20236;-73
2023/08/09 12:28:37;;;;;;;0.68;0.68;;;22.40;99.90;;;;;;5073617;28;20205;-74
2023/08/09 12:31:06;;;;;;;0.50;0.50;;;22.40;99.90;;;;;;5073442;28;20315;-73
2023/08/09 12:33:34;;;;;;;0.65;0.60;;;22.40;99.90;;;;;;5073140;28;20220;-73
2023/08/09 12:36:02;;;;;;;1.83;0.88;;;22.50;99.90;;;;;;5073167;28;20255;-73
2023/08/09 12:38:30;;;;;;;2.95;0.85;;;22.60;99.90;;;;;;5073642;28;20243;-73
2023/08/09 12:40:58;;;;;;;1.77;0.93;;;22.60;99.90;;;;;;5073242;28;20253;-73
2023/08/09 12:43:25;;;;;;;1.85;0.90;;;22.50;99.90;;;;;;5073071;28;20701;-74
2023/08/09 12:45:55;;;;;;;2.05;0.90;;;22.60;99.90;;;;;;5072758;28;20236;-74
2023/08/09 12:48:23;;;;;;;1.70;0.75;;;22.60;99.90;;;;;;5073319;28;20610;-73
2023/08/09 12:50:51;;;;;;;2.78;0.60;;;22.60;99.90;;;;;;5072530;28;20703;-73
2023/08/09 12:53:19;;;;;;;2.00;0.73;;;22.50;99.90;;;;;;5072994;28;20224;-73